Latest Weather Observations for Hogan Island

IDV60801

Issued at 10:02 pm EST Tuesday 4 August 2020 (issued every 10 minutes, with the page automatically refreshed every 10 minutes)

About weather observations | Map of weather stations | Latest weather observations for VIC | Other Formats
Station Details ID: 200838 Name: HOGAN ISLAND Lat: -39.22 Lon: 146.98 Height: 116.0 m
Data from the previous 72 hours. | See also: Recent months at Hogan Island
Date/Time
EST
Temp
°C
App
Temp
°C
Dew
Point
°C
Rel
Hum
%
Delta-T
°C
Wind Press
QNH
hPa
Press
MSL
hPa
Rain since
9am
mm
Dir  Spd
km/h
Gust
km/h
Spd
kts
Gust
kts
04/10:00pm 7.4 -3.8 7.4 100 0.0 N 56 63 30 34 1007.3 - 5.0
04/09:30pm 7.4 -3.5 7.4 100 0.0 N 54 63 29 34 1007.7 - 5.0
04/09:00pm 6.5 -3.4 6.5 100 0.0 N 48 57 26 31 1008.3 1008.4 5.0
04/08:30pm 6.4 -2.6 6.4 100 0.0 N 43 54 23 29 1008.5 - 5.0
04/08:00pm 6.2 -3.0 6.2 100 0.0 N 44 54 24 29 1008.3 - 5.0
04/07:30pm 6.1 - 6.2 - - N 43 52 23 28 1008.2 - 5.0
04/07:00pm 5.9 - 6.0 - - N 41 50 22 27 1008.2 - 5.0
04/06:30pm 5.7 - 5.8 - - N 39 46 21 25 1008.3 - 5.0
04/06:00pm 5.2 - 5.5 - - N 35 43 19 23 1008.1 1008.2 5.0
04/05:30pm 4.8 - 5.1 - - N 39 48 21 26 1007.8 - 5.0
04/05:05pm 4.6 - 5.0 - - N 37 63 20 34 1007.7 - 5.0
04/05:00pm 4.1 - 4.5 - - N 52 65 28 35 1007.6 - 5.0
04/04:30pm 5.2 - 5.6 - - N 44 54 24 29 1007.0 - 4.6
04/04:00pm 4.9 - 5.2 - - N 37 44 20 24 1007.0 - 4.6
04/03:30pm 4.8 - 5.1 - - N 35 46 19 25 1006.8 - 4.6
04/03:00pm 5.1 - 5.4 - - N 43 50 23 27 1006.6 1006.7 4.6
04/02:30pm 5.4 - 5.8 - - N 50 59 27 32 1006.3 - 4.6
04/02:06pm 5.0 - 5.4 - - N 56 65 30 35 1006.2 - 4.6
04/02:04pm 5.2 - 5.6 - - N 32 50 17 27 1006.6 - 4.6
04/02:00pm 4.9 - 5.3 - - N 30 35 16 19 1006.8 - 4.6
04/01:30pm 5.0 - 5.6 - - N 33 35 18 19 1006.7 - 4.6
04/01:00pm 4.5 - 5.1 - - N 41 46 22 25 1006.8 - 4.6
04/12:30pm 4.2 - 4.8 - - N 35 43 19 23 1007.0 - 4.4
04/12:00pm 4.1 - 4.7 - - N 43 54 23 29 1007.2 1007.3 4.2
04/11:32am 3.7 - 4.1 - - N 48 67 26 36 1007.4 - 4.2
04/11:30am 3.7 - 4.1 - - N 52 67 28 36 1007.4 - 4.0
04/11:00am 4.8 - 5.2 - - N 63 70 34 38 1007.3 - 4.0
04/10:30am 4.4 - 5.0 - - N 65 76 35 41 1007.4 - 4.0
04/10:00am 4.5 - 4.9 - - N 50 80 27 43 1007.7 - 3.4
04/09:51am 3.2 - 3.6 - - N 56 80 30 43 1007.6 - 2.0
04/09:30am 5.2 - 5.6 - - N 48 59 26 32 1007.6 - 0.2
04/09:00am 5.3 - 5.7 - - N 44 61 24 33 1007.7 1007.8 9.0
04/08:45am 5.0 - 5.4 - - N 30 50 16 27 1007.9 - 9.0
04/08:30am 4.1 - 4.5 - - N 26 35 14 19 1008.2 - 8.8
04/08:07am 4.1 - 4.5 - - N 28 50 15 27 1008.1 - 8.0
04/08:00am 5.3 - 5.7 - - N 20 26 11 14 1008.0 - 8.0
04/07:30am 4.2 - 4.6 - - N 20 26 11 14 1008.2 - 8.0
04/07:00am 3.8 - 4.2 - - N 39 57 21 31 1008.3 - 8.0
04/06:38am 5.9 - 6.0 - - N 41 70 22 38 1007.8 - 6.6
04/06:30am 5.8 - 5.9 - - N 33 41 18 22 1008.0 - 6.6
04/06:00am 5.5 - 5.8 - - N 41 46 22 25 1008.1 1008.2 6.6
04/05:37am 5.3 - 5.6 - - N 37 59 20 32 1008.0 - 6.6
04/05:30am 5.5 - 5.8 - - N 56 67 30 36 1007.9 - 6.6
04/05:00am 4.8 - 5.2 - - N 61 70 33 38 1007.7 - 6.4
04/04:47am 5.0 - 5.4 - - N 54 72 29 39 1007.6 - 6.4
04/04:30am 4.7 - 5.1 - - N 50 63 27 34 1007.9 - 6.2
04/04:00am 4.4 - 5.0 - - N 56 63 30 34 1008.0 - 5.8
04/03:30am 5.0 - 5.6 - - N 56 67 30 36 1007.8 - 4.4
04/03:04am 5.7 - 6.1 - - N 63 76 34 41 1007.7 - 3.8
04/03:00am 6.7 - 7.1 - - N 33 56 18 30 1007.7 1007.8 3.6
04/02:59am 7.0 - 7.4 - - N 32 56 17 30 1007.7 - 3.6
04/02:30am 8.2 - 8.6 - - N 54 63 29 34 1007.2 - 3.6
04/02:00am 8.0 - 8.4 - - N 50 63 27 34 1007.5 - 3.6
04/01:30am 8.1 - 8.5 - - N 50 65 27 35 1007.6 - 3.6
04/01:00am 8.2 - 8.8 - - N 50 59 27 32 1008.0 - 3.6
04/12:30am 8.2 - 8.8 - - N 54 69 29 37 1008.0 - 3.4
04/12:00am 8.8 - 9.4 - - N 44 54 24 29 1008.4 1008.5 3.0
 
Date/Time
EST
Temp
°C
App
Temp
°C
Dew
Point
°C
Rel
Hum
%
Delta-T
°C
Wind Press
QNH
hPa
Press
MSL
hPa
Rain since
9am
mm
Dir  Spd
km/h
Gust
km/h
Spd
kts
Gust
kts
03/11:44pm 8.7 - 9.1 - - N 46 65 25 35 1008.5 - 3.0
03/11:30pm 9.1 - 9.5 - - N 46 56 25 30 1008.9 - 2.8
03/11:00pm 9.0 - 9.4 - - N 41 54 22 29 1009.2 - 2.8
03/10:30pm 9.1 - 9.5 - - N 39 48 21 26 1009.6 - 2.8
03/10:00pm 9.4 - 9.7 - - N 44 54 24 29 1009.8 - 2.8
03/09:30pm 9.2 - 9.5 - - N 52 59 28 32 1009.9 - 2.8
03/09:00pm 9.0 - 9.4 - - N 44 52 24 28 1010.0 1010.1 2.8
03/08:30pm 8.8 - 9.2 - - N 46 52 25 28 1010.1 - 2.8
03/08:00pm 8.2 - 8.8 - - N 43 52 23 28 1010.5 - 2.8
03/07:30pm 8.5 - 8.9 - - N 41 48 22 26 1011.0 - 2.6
03/07:00pm 8.9 - 9.5 - - N 44 56 24 30 1010.9 - 2.6
03/06:30pm 8.8 - 9.4 - - N 46 54 25 29 1010.9 - 2.6
03/06:00pm 8.4 - 9.0 - - N 50 65 27 35 1010.6 1010.8 2.6
03/05:30pm 8.6 - 9.3 - - N 50 57 27 31 1010.7 - 2.6
03/05:00pm 8.8 - 9.5 - - N 44 50 24 27 1011.0 - 1.8
03/04:30pm 8.3 - 9.0 - - N 50 56 27 30 1011.1 - 1.4
03/04:00pm 8.7 - 9.3 - - N 56 67 30 36 1010.9 - 0.8
03/03:34pm 10.0 - 10.4 - - N 54 72 29 39 1010.5 - 0.0
03/03:30pm 10.3 - 10.7 - - N 50 57 27 31 1010.7 - 0.0
03/03:00pm 10.5 - 11.1 - - N 46 57 25 31 1010.6 1010.8 0.0
03/02:30pm 9.8 - 10.2 - - N 54 67 29 36 1011.0 - 0.0
03/02:17pm 11.2 - 11.6 - - N 44 63 24 34 1011.0 - 0.0
03/02:00pm 11.3 - 11.7 - - N 52 59 28 32 1011.2 - 0.0
03/01:30pm 11.0 - 11.3 - - N 61 72 33 39 1011.0 - 0.0
03/01:00pm 11.8 - 12.0 - - N 59 69 32 37 1011.4 - 0.0
03/12:30pm 11.9 - 12.1 - - N 57 69 31 37 1012.0 - 0.0
03/12:00pm 12.2 - 12.4 - - N 56 65 30 35 1012.4 1012.5 0.0
03/11:30am 11.8 - 12.0 - - N 50 59 27 32 1013.1 - 0.0
03/11:00am 11.7 - 12.1 - - N 46 54 25 29 1013.6 - 0.0
03/10:30am 11.5 - 11.9 - - N 41 48 22 26 1013.8 - 0.0
03/10:00am 11.7 - 12.0 - - N 50 57 27 31 1013.8 - 0.0
03/09:30am 11.1 - 11.2 - - N 56 63 30 34 1014.0 - 0.0
03/09:00am 11.3 - 11.6 - - N 56 69 30 37 1013.8 1013.9 0.0
03/08:30am 11.2 - 11.8 - - N 48 59 26 32 1014.1 - 0.0
03/08:00am 10.8 - 11.4 - - N 41 52 22 28 1014.3 - 0.0
03/07:30am 10.7 - 11.3 - - N 39 46 21 25 1014.4 - 0.0
03/07:00am 10.5 - 11.1 - - N 41 50 22 27 1014.3 - 0.0
03/06:30am 11.0 - 11.4 - - N 37 44 20 24 1014.3 - 0.0
03/06:00am 10.9 - 11.5 - - N 37 46 20 25 1014.5 1014.6 0.0
03/05:30am 10.7 - 11.3 - - N 28 35 15 19 1014.7 - 0.0
03/05:00am 10.7 - 11.4 - - N 26 33 14 18 1014.8 - 0.0
03/04:30am 10.6 - 11.2 - - N 24 30 13 16 1015.1 - 0.0
03/04:00am 10.7 - 11.3 - - N 28 32 15 17 1015.4 - 0.0
03/03:30am 10.4 - 11.1 - - N 28 33 15 18 1015.5 - 0.0
03/03:00am 10.3 - 11.0 - - N 26 30 14 16 1016.0 1016.1 0.0
03/02:30am 10.3 - 11.0 - - N 22 26 12 14 1016.4 - 0.0
03/02:00am 10.3 - 11.0 - - N 22 26 12 14 1016.9 - 0.0
03/01:30am 10.2 - 10.9 - - N 19 24 10 13 1017.2 - 0.0
03/01:00am 10.2 - 10.9 - - N 19 24 10 13 1017.9 - 0.0
03/12:30am 10.6 - 11.2 - - N 19 24 10 13 1018.3 - 0.0
03/12:00am 10.9 - 11.3 - - N 15 20 8 11 1018.6 1018.8 0.0
 
Date/Time
EST
Temp
°C
App
Temp
°C
Dew
Point
°C
Rel
Hum
%
Delta-T
°C
Wind Press
QNH
hPa
Press
MSL
hPa
Rain since
9am
mm
Dir  Spd
km/h
Gust
km/h
Spd
kts
Gust
kts
02/11:30pm 10.9 - 11.3 - - N 20 28 11 15 1018.7 - 0.0
02/11:00pm 11.1 - 11.5 - - N 22 24 12 13 1019.3 - 0.0
02/10:30pm 10.9 - 11.5 - - N 20 24 11 13 1019.7 - 0.0
02/10:00pm 10.9 - 11.5 - - N 20 24 11 13 1020.0 - 0.0
02/09:30pm 10.8 - 11.2 - - N 22 26 12 14 1020.1 - 0.0
02/09:00pm 10.7 - 11.1 - - N 22 26 12 14 1020.4 1020.5 0.0
02/08:30pm 10.9 - 11.3 - - N 30 32 16 17 1020.4 - 0.0
02/08:00pm 10.9 - 11.3 - - N 28 32 15 17 1020.4 - 0.0
02/07:30pm 10.9 - 11.3 - - N 28 32 15 17 1020.3 - 0.0
02/07:00pm 11.1 - 11.5 - - N 37 41 20 22 1020.1 - 0.0
02/06:30pm 11.1 - 11.5 - - N 39 43 21 23 1020.1 - 0.0
02/06:00pm 11.1 - 11.7 - - N 39 44 21 24 1020.0 1020.1 0.0
02/05:30pm 11.3 - 11.7 - - N 43 46 23 25 1020.0 - 0.0
02/05:14pm 11.5 - 11.9 - - N 41 46 22 25 1020.0 - 0.0
02/05:00pm 11.8 - 12.2 - - W 41 46 22 25 1020.0 - 0.0
02/04:49pm 12.1 - 12.5 - - W 43 48 23 26 1020.0 - 0.0
02/04:30pm 12.6 - 12.9 - - NNW 35 41 19 22 1020.1 - 0.0
02/04:00pm 12.7 - 13.0 - - NNW 37 44 20 24 1020.1 - 0.0
02/03:48pm 12.8 - 13.1 - - NW 39 43 21 23 1020.2 - 0.0
02/03:30pm 12.9 - 13.2 - - WNW 35 41 19 22 1020.3 - 0.0
02/03:00pm 14.3 - 14.6 - - NW 26 30 14 16 1020.7 1020.8 0.0
02/02:30pm 13.8 - 14.1 - - NW 28 32 15 17 1020.7 - 0.0
02/02:00pm 13.3 - 13.6 - - NNW 30 35 16 19 1020.8 - 0.0
02/01:30pm 14.1 - 14.4 - - NNW 30 33 16 18 1020.8 - 0.0
02/01:00pm 12.9 - 13.2 - - NNW 32 37 17 20 1021.1 - 0.0
02/12:30pm 13.7 - 14.0 - - NNW 33 37 18 20 1021.3 - 0.0
02/12:00pm 13.7 - 14.0 - - NW 35 43 19 23 1021.6 1021.7 0.0
02/11:30am 13.4 - 13.7 - - NW 35 41 19 22 1022.0 - 0.0
02/11:00am 12.8 - 13.1 - - NNW 33 39 18 21 1022.2 - 0.0
02/10:51am 12.9 - 13.2 - - NW 37 43 20 23 1022.2 - 0.0
02/10:30am 12.7 - 12.9 - - N 43 48 23 26 1022.1 - 0.0
02/10:00am 12.3 - 12.5 - - NW 37 41 20 22 1022.3 - 0.0
02/09:30am 12.2 - 12.5 - - NNW 33 41 18 22 1022.3 - 0.0
02/09:00am 12.1 - 12.4 - - NNW 37 46 20 25 1022.1 1022.2 0.0
02/08:30am 11.9 - 12.2 - - NW 41 50 22 27 1021.6 - 0.0
02/08:00am 12.0 - 12.2 - - NW 48 57 26 31 1021.1 - 0.0
02/07:30am 12.0 - 12.2 - - NW 56 61 30 33 1020.6 - 0.0
02/07:00am 12.1 - 12.3 - - NW 56 61 30 33 1020.2 - 0.0
02/06:30am 12.3 - 12.5 - - WNW 52 57 28 31 1020.2 - 0.0
02/06:00am 12.2 - 12.5 - - NW 46 52 25 28 1020.1 1020.2 0.0
02/05:56am 12.3 - 12.5 - - NW 46 50 25 27 1020.1 - 0.0
02/05:34am 12.3 - 12.5 - - N 46 50 25 27 1020.1 - 0.0
02/05:30am 12.3 - 12.5 - - NW 44 50 24 27 1020.1 - 0.0
02/05:00am 12.4 - 12.6 - - NNW 43 48 23 26 1020.2 - 0.0
02/04:30am 12.7 - 12.9 - - N 37 44 20 24 1020.0 - 0.0
02/04:00am 12.9 - 13.1 - - NNW 39 44 21 24 1019.9 - 0.0
02/03:30am 12.5 - 12.7 - - NNW 39 46 21 25 1019.9 - 0.0
02/03:00am 12.6 - 12.8 - - NNW 46 57 25 31 1019.9 1020.0 0.0
02/02:30am 12.8 - 13.0 - - NNW 52 61 28 33 1019.4 - 0.0
02/02:00am 12.4 - 12.7 - - NNW 39 52 21 28 1019.7 - 0.0
02/01:54am 11.9 - 12.2 - - N 32 52 17 28 1019.9 - 0.0
02/01:30am 12.0 - 12.3 - - N 33 41 18 22 1020.1 - 0.0
02/01:00am 12.2 - 12.5 - - N 39 44 21 24 1020.0 - 0.0
02/12:30am 12.0 - 12.3 - - N 37 46 20 25 1020.1 - 0.0
02/12:00am 12.0 - 12.3 - - N 41 48 22 26 1020.4 1020.5 0.0
 
Date/Time
EST
Temp
°C
App
Temp
°C
Dew
Point
°C
Rel
Hum
%
Delta-T
°C
Wind Press
QNH
hPa
Press
MSL
hPa
Rain since
9am
mm
Dir  Spd
km/h
Gust
km/h
Spd
kts
Gust
kts
01/11:30pm 12.5 - 12.7 - - NNW 43 50 23 27 1020.3 - 0.0
01/11:00pm 12.0 - 12.3 - - N 46 56 25 30 1020.4 - 0.0
01/10:30pm 12.0 - 12.3 - - NNW 43 54 23 29 1020.3 - 0.0

Other formats

Comma delimited format used in spreadsheet applications
http://www.bom.gov.au/fwo/IDV60801/IDV60801.94949.axf

JavaScript Object Notation format (JSON) in row-major order
http://www.bom.gov.au/fwo/IDV60801/IDV60801.94949.json

Data quality

Most of these data are generated automatically and are frequently updated. Quality checks on data are not normally performed. It is possible for incorrect values to appear. Refer to information at About Latest Weather Observations and please check the disclaimer before using these data.